sensor_id;sensor_type;location;lat;lon;timestamp;temperature;humidity
9971;DHT22;5026;51.494;11.974;2024-01-15T00:01:00;2.00;99.90
9971;DHT22;5026;51.494;11.974;2024-01-15T00:03:27;2.00;99.90
9971;DHT22;5026;51.494;11.974;2024-01-15T00:05:55;2.00;99.90
9971;DHT22;5026;51.494;11.974;2024-01-15T00:08:22;2.10;99.90
9971;DHT22;5026;51.494;11.974;2024-01-15T00:10:49;2.10;99.90
9971;DHT22;5026;51.494;11.974;2024-01-15T00:13:16;2.00;99.90
9971;DHT22;5026;51.494;11.974;2024-01-15T00:15:43;2.00;99.90
9971;DHT22;5026;51.494;11.974;2024-01-15T00:18:10;2.50;99.90
9971;DHT22;5026;51.494;11.974;2024-01-15T00:20:37;2.00;99.90
9971;DHT22;5026;51.494;11.974;2024-01-15T00:23:05;1.90;99.90
9971;DHT22;5026;51.494;11.974;2024-01-15T00:25:32;1.90;99.90
9971;DHT22;5026;51.494;11.974;2024-01-15T00:27:59;1.80;99.90
9971;DHT22;5026;51.494;11.974;2024-01-15T00:30:26;1.70;99.90
9971;DHT22;5026;51.494;11.974;2024-01-15T00:32:53;1.70;99.90
9971;DHT22;5026;51.494;11.974;2024-01-15T00:35:20;1.60;99.90
9971;DHT22;5026;51.494;11.974;2024-01-15T00:37:47;1.60;99.90
9971;DHT22;5026;51.494;11.974;2024-01-15T00:40:15;2.00;99.90
9971;DHT22;5026;51.494;11.974;2024-01-15T00:42:42;2.50;99.90
9971;DHT22;5026;51.494;11.974;2024-01-15T00:45:10;1.80;99.90
9971;DHT22;5026;51.494;11.974;2024-01-15T00:47:37;1.90;99.90
9971;DHT22;5026;51.494;11.974;2024-01-15T00:50:07;1.90;99.90
9971;DHT22;5026;51.494;11.974;2024-01-15T00:52:34;1.90;99.90
9971;DHT22;5026;51.494;11.974;2024-01-15T00:55:01;1.90;99.90
9971;DHT22;5026;51.494;11.974;2024-01-15T00:57:30;1.90;99.90
9971;DHT22;5026;51.494;11.974;2024-01-15T00:59:57;2.80;99.90
9971;DHT22;5026;51.494;11.974;2024-01-15T01:02:24;1.80;99.90
9971;DHT22;5026;51.494;11.974;2024-01-15T01:04:50;1.70;99.90
9971;DHT22;5026;51.494;11.974;2024-01-15T01:07:17;1.90;99.90
9971;DHT22;5026;51.494;11.974;2024-01-15T01:09:45;1.80;99.90
9971;DHT22;5026;51.494;11.974;2024-01-15T01:12:13;1.80;99.90
9971;DHT22;5026;51.494;11.974;2024-01-15T01:14:41;1.70;99.90
9971;DHT22;5026;51.494;11.974;2024-01-15T01:17:08;1.90;99.90
9971;DHT22;5026;51.494;11.974;2024-01-15T01:19:35;1.90;99.90
9971;DHT22;5026;51.494;11.974;2024-01-15T01:22:02;1.90;99.90
9971;DHT22;5026;51.494;11.974;2024-01-15T01:24:29;1.90;99.90
9971;DHT22;5026;51.494;11.974;2024-01-15T01:26:56;1.90;99.90
9971;DHT22;5026;51.494;11.974;2024-01-15T01:29:23;1.90;99.90
9971;DHT22;5026;51.494;11.974;2024-01-15T01:31:53;2.80;99.90
9971;DHT22;5026;51.494;11.974;2024-01-15T01:34:20;1.80;99.90
9971;DHT22;5026;51.494;11.974;2024-01-15T01:36:47;1.80;99.90
9971;DHT22;5026;51.494;11.974;2024-01-15T01:39:14;2.30;99.90
9971;DHT22;5026;51.494;11.974;2024-01-15T01:41:41;1.80;99.90
9971;DHT22;5026;51.494;11.974;2024-01-15T01:44:08;1.60;99.90
9971;DHT22;5026;51.494;11.974;2024-01-15T01:46:36;1.60;99.90
9971;DHT22;5026;51.494;11.974;2024-01-15T01:49:08;1.70;99.90
9971;DHT22;5026;51.494;11.974;2024-01-15T01:51:35;1.70;99.90
9971;DHT22;5026;51.494;11.974;2024-01-15T01:54:04;1.80;99.90
9971;DHT22;5026;51.494;11.974;2024-01-15T01:56:31;1.80;99.90
9971;DHT22;5026;51.494;11.974;2024-01-15T01:58:58;1.80;99.90
9971;DHT22;5026;51.494;11.974;2024-01-15T02:01:25;1.80;99.90
9971;DHT22;5026;51.494;11.974;2024-01-15T02:03:52;2.50;99.90
9971;DHT22;5026;51.494;11.974;2024-01-15T02:06:23;1.80;99.90
9971;DHT22;5026;51.494;11.974;2024-01-15T02:08:50;1.80;99.90
9971;DHT22;5026;51.494;11.974;2024-01-15T02:11:17;1.80;99.90
9971;DHT22;5026;51.494;11.974;2024-01-15T02:13:45;1.80;99.90
9971;DHT22;5026;51.494;11.974;2024-01-15T02:16:12;1.80;99.90
9971;DHT22;5026;51.494;11.974;2024-01-15T02:18:42;1.70;99.90
9971;DHT22;5026;51.494;11.974;2024-01-15T02:21:09;1.70;99.90
9971;DHT22;5026;51.494;11.974;2024-01-15T02:23:39;1.70;99.90
9971;DHT22;5026;51.494;11.974;2024-01-15T02:26:06;1.70;99.90
9971;DHT22;5026;51.494;11.974;2024-01-15T02:28:34;2.00;99.90
9971;DHT22;5026;51.494;11.974;2024-01-15T02:31:01;1.70;99.90
9971;DHT22;5026;51.494;11.974;2024-01-15T02:33:28;1.70;99.90
9971;DHT22;5026;51.494;11.974;2024-01-15T02:35:55;1.50;99.90
9971;DHT22;5026;51.494;11.974;2024-01-15T02:38:22;1.80;99.90
9971;DHT22;5026;51.494;11.974;2024-01-15T02:40:50;1.60;99.90
9971;DHT22;5026;51.494;11.974;2024-01-15T02:43:17;2.50;99.90
9971;DHT22;5026;51.494;11.974;2024-01-15T02:45:45;1.50;99.90
9971;DHT22;5026;51.494;11.974;2024-01-15T02:48:12;1.60;99.90
9971;DHT22;5026;51.494;11.974;2024-01-15T02:50:39;1.60;99.90
9971;DHT22;5026;51.494;11.974;2024-01-15T02:53:06;1.60;99.90
9971;DHT22;5026;51.494;11.974;2024-01-15T02:55:33;1.50;99.90
9971;DHT22;5026;51.494;11.974;2024-01-15T02:58:01;1.50;99.90
9971;DHT22;5026;51.494;11.974;2024-01-15T03:00:28;1.60;99.90
9971;DHT22;5026;51.494;11.974;2024-01-15T03:02:56;1.50;99.90
9971;DHT22;5026;51.494;11.974;2024-01-15T03:05:22;1.50;99.90
9971;DHT22;5026;51.494;11.974;2024-01-15T03:07:50;1.40;99.90
9971;DHT22;5026;51.494;11.974;2024-01-15T03:10:16;1.20;99.90
9971;DHT22;5026;51.494;11.974;2024-01-15T03:12:43;1.10;99.90
9971;DHT22;5026;51.494;11.974;2024-01-15T03:15:12;1.10;99.90
9971;DHT22;5026;51.494;11.974;2024-01-15T03:17:40;1.00;99.90
9971;DHT22;5026;51.494;11.974;2024-01-15T03:20:08;1.00;99.90
9971;DHT22;5026;51.494;11.974;2024-01-15T03:22:35;0.90;99.90
9971;DHT22;5026;51.494;11.974;2024-01-15T03:25:03;0.80;99.90
9971;DHT22;5026;51.494;11.974;2024-01-15T03:27:30;0.70;99.90
9971;DHT22;5026;51.494;11.974;2024-01-15T03:29:57;0.70;99.90
9971;DHT22;5026;51.494;11.974;2024-01-15T03:32:25;0.60;99.90
9971;DHT22;5026;51.494;11.974;2024-01-15T03:34:52;0.60;99.90
9971;DHT22;5026;51.494;11.974;2024-01-15T03:37:19;0.70;99.90
9971;DHT22;5026;51.494;11.974;2024-01-15T03:39:46;0.60;99.90
9971;DHT22;5026;51.494;11.974;2024-01-15T03:42:13;0.60;99.90
9971;DHT22;5026;51.494;11.974;2024-01-15T03:44:40;0.80;99.90
9971;DHT22;5026;51.494;11.974;2024-01-15T03:47:07;0.60;99.90
9971;DHT22;5026;51.494;11.974;2024-01-15T03:49:35;0.60;99.90
9971;DHT22;5026;51.494;11.974;2024-01-15T03:52:03;1.50;99.90
9971;DHT22;5026;51.494;11.974;2024-01-15T03:54:30;0.90;99.90
9971;DHT22;5026;51.494;11.974;2024-01-15T03:56:57;0.90;99.90
9971;DHT22;5026;51.494;11.974;2024-01-15T03:59:24;1.10;99.90
9971;DHT22;5026;51.494;11.974;2024-01-15T04:01:51;1.70;99.90
9971;DHT22;5026;51.494;11.974;2024-01-15T04:04:18;1.30;99.90
9971;DHT22;5026;51.494;11.974;2024-01-15T04:06:46;1.20;99.90
9971;DHT22;5026;51.494;11.974;2024-01-15T04:09:13;1.30;99.90
9971;DHT22;5026;51.494;11.974;2024-01-15T04:11:40;1.20;99.90
9971;DHT22;5026;51.494;11.974;2024-01-15T04:14:07;1.20;99.90
9971;DHT22;5026;51.494;11.974;2024-01-15T04:16:34;1.20;99.90
9971;DHT22;5026;51.494;11.974;2024-01-15T04:19:01;1.20;99.90
9971;DHT22;5026;51.494;11.974;2024-01-15T04:21:29;1.30;99.90
9971;DHT22;5026;51.494;11.974;2024-01-15T04:23:57;1.20;99.90
9971;DHT22;5026;51.494;11.974;2024-01-15T04:26:24;1.30;99.90
9971;DHT22;5026;51.494;11.974;2024-01-15T04:28:51;1.30;99.90
9971;DHT22;5026;51.494;11.974;2024-01-15T04:31:22;1.30;99.90
9971;DHT22;5026;51.494;11.974;2024-01-15T04:36:16;1.40;99.90
9971;DHT22;5026;51.494;11.974;2024-01-15T04:38:43;1.40;99.90
9971;DHT22;5026;51.494;11.974;2024-01-15T04:41:13;1.50;99.90
9971;DHT22;5026;51.494;11.974;2024-01-15T04:43:40;1.50;99.90
9971;DHT22;5026;51.494;11.974;2024-01-15T04:46:07;1.60;99.90
9971;DHT22;5026;51.494;11.974;2024-01-15T04:48:34;1.50;99.90
9971;DHT22;5026;51.494;11.974;2024-01-15T04:51:01;2.00;99.90
9971;DHT22;5026;51.494;11.974;2024-01-15T04:53:30;1.50;99.90
9971;DHT22;5026;51.494;11.974;2024-01-15T04:55:57;1.50;99.90
9971;DHT22;5026;51.494;11.974;2024-01-15T04:58:25;1.50;99.90
9971;DHT22;5026;51.494;11.974;2024-01-15T05:00:53;1.50;99.90
9971;DHT22;5026;51.494;11.974;2024-01-15T05:03:20;2.20;99.90
9971;DHT22;5026;51.494;11.974;2024-01-15T05:05:47;2.20;99.90
9971;DHT22;5026;51.494;11.974;2024-01-15T05:08:14;1.60;99.90
9971;DHT22;5026;51.494;11.974;2024-01-15T05:10:41;1.50;99.90
9971;DHT22;5026;51.494;11.974;2024-01-15T05:13:08;1.50;99.90
9971;DHT22;5026;51.494;11.974;2024-01-15T05:15:36;1.40;99.90
9971;DHT22;5026;51.494;11.974;2024-01-15T05:18:03;1.30;99.90
9971;DHT22;5026;51.494;11.974;2024-01-15T05:20:30;1.30;99.90
9971;DHT22;5026;51.494;11.974;2024-01-15T05:22:57;1.50;99.90
9971;DHT22;5026;51.494;11.974;2024-01-15T05:25:24;1.50;99.90
9971;DHT22;5026;51.494;11.974;2024-01-15T05:27:51;1.50;99.90
9971;DHT22;5026;51.494;11.974;2024-01-15T05:30:18;1.50;99.90
9971;DHT22;5026;51.494;11.974;2024-01-15T05:32:47;1.60;99.90
9971;DHT22;5026;51.494;11.974;2024-01-15T05:35:14;1.60;99.90
9971;DHT22;5026;51.494;11.974;2024-01-15T05:37:43;1.90;99.90
9971;DHT22;5026;51.494;11.974;2024-01-15T05:40:11;1.70;99.90
9971;DHT22;5026;51.494;11.974;2024-01-15T05:42:39;1.70;99.90
9971;DHT22;5026;51.494;11.974;2024-01-15T05:45:06;1.70;99.90
9971;DHT22;5026;51.494;11.974;2024-01-15T05:47:34;1.70;99.90
9971;DHT22;5026;51.494;11.974;2024-01-15T05:50:02;1.70;99.90
9971;DHT22;5026;51.494;11.974;2024-01-15T05:52:30;1.60;99.90
9971;DHT22;5026;51.494;11.974;2024-01-15T05:54:57;1.60;99.90
9971;DHT22;5026;51.494;11.974;2024-01-15T05:57:24;1.60;99.90
9971;DHT22;5026;51.494;11.974;2024-01-15T05:59:52;1.60;99.90
9971;DHT22;5026;51.494;11.974;2024-01-15T06:02:19;1.70;99.90
9971;DHT22;5026;51.494;11.974;2024-01-15T06:04:46;1.70;99.90
9971;DHT22;5026;51.494;11.974;2024-01-15T06:07:14;1.70;99.90
9971;DHT22;5026;51.494;11.974;2024-01-15T06:09:42;1.70;99.90
9971;DHT22;5026;51.494;11.974;2024-01-15T06:12:09;1.60;99.90
9971;DHT22;5026;51.494;11.974;2024-01-15T06:14:35;1.70;99.90
9971;DHT22;5026;51.494;11.974;2024-01-15T06:17:03;2.40;99.90
9971;DHT22;5026;51.494;11.974;2024-01-15T06:19:30;1.70;99.90
9971;DHT22;5026;51.494;11.974;2024-01-15T06:21:57;1.70;99.90
9971;DHT22;5026;51.494;11.974;2024-01-15T06:24:25;1.60;99.90
9971;DHT22;5026;51.494;11.974;2024-01-15T06:26:52;1.60;99.90
9971;DHT22;5026;51.494;11.974;2024-01-15T06:29:19;1.60;99.90
9971;DHT22;5026;51.494;11.974;2024-01-15T06:31:46;1.60;99.90
9971;DHT22;5026;51.494;11.974;2024-01-15T06:34:14;1.60;99.90
9971;DHT22;5026;51.494;11.974;2024-01-15T06:36:42;1.50;99.90
9971;DHT22;5026;51.494;11.974;2024-01-15T06:39:09;1.50;99.90
9971;DHT22;5026;51.494;11.974;2024-01-15T06:41:38;1.60;99.90
9971;DHT22;5026;51.494;11.974;2024-01-15T06:44:08;1.60;99.90
9971;DHT22;5026;51.494;11.974;2024-01-15T06:46:35;1.60;99.90
9971;DHT22;5026;51.494;11.974;2024-01-15T06:49:02;1.60;99.90
9971;DHT22;5026;51.494;11.974;2024-01-15T06:51:30;1.60;99.90
9971;DHT22;5026;51.494;11.974;2024-01-15T06:53:57;1.60;99.90
9971;DHT22;5026;51.494;11.974;2024-01-15T06:56:23;1.90;99.90
9971;DHT22;5026;51.494;11.974;2024-01-15T06:58:52;1.60;99.90
9971;DHT22;5026;51.494;11.974;2024-01-15T07:01:19;1.50;99.90
9971;DHT22;5026;51.494;11.974;2024-01-15T07:03:46;1.60;99.90
9971;DHT22;5026;51.494;11.974;2024-01-15T07:06:13;1.60;99.90
9971;DHT22;5026;51.494;11.974;2024-01-15T07:08:40;1.60;99.90
9971;DHT22;5026;51.494;11.974;2024-01-15T07:11:07;1.60;99.90
9971;DHT22;5026;51.494;11.974;2024-01-15T07:13:36;1.60;99.90
9971;DHT22;5026;51.494;11.974;2024-01-15T07:16:05;1.50;99.90
9971;DHT22;5026;51.494;11.974;2024-01-15T07:18:32;1.50;99.90
9971;DHT22;5026;51.494;11.974;2024-01-15T07:21:00;2.30;99.90
9971;DHT22;5026;51.494;11.974;2024-01-15T07:23:28;1.70;99.90
9971;DHT22;5026;51.494;11.974;2024-01-15T07:25:55;1.60;99.90
9971;DHT22;5026;51.494;11.974;2024-01-15T07:28:22;1.50;99.90
9971;DHT22;5026;51.494;11.974;2024-01-15T07:30:49;1.50;99.90
9971;DHT22;5026;51.494;11.974;2024-01-15T07:33:17;1.40;99.90
9971;DHT22;5026;51.494;11.974;2024-01-15T07:35:44;1.20;99.90
9971;DHT22;5026;51.494;11.974;2024-01-15T07:38:12;1.10;99.90
9971;DHT22;5026;51.494;11.974;2024-01-15T07:40:39;1.10;99.90
9971;DHT22;5026;51.494;11.974;2024-01-15T07:43:07;1.10;99.90
9971;DHT22;5026;51.494;11.974;2024-01-15T07:45:34;1.30;99.90
9971;DHT22;5026;51.494;11.974;2024-01-15T07:48:01;1.30;99.90
9971;DHT22;5026;51.494;11.974;2024-01-15T07:50:31;1.30;99.90
9971;DHT22;5026;51.494;11.974;2024-01-15T07:52:58;1.90;99.90
9971;DHT22;5026;51.494;11.974;2024-01-15T07:55:25;1.40;99.90
9971;DHT22;5026;51.494;11.974;2024-01-15T07:57:52;1.50;99.90
9971;DHT22;5026;51.494;11.974;2024-01-15T08:00:24;1.50;99.90
9971;DHT22;5026;51.494;11.974;2024-01-15T08:02:51;1.40;99.90
9971;DHT22;5026;51.494;11.974;2024-01-15T08:05:19;1.40;99.90
9971;DHT22;5026;51.494;11.974;2024-01-15T08:07:47;1.40;99.90
9971;DHT22;5026;51.494;11.974;2024-01-15T08:10:14;1.50;99.90
9971;DHT22;5026;51.494;11.974;2024-01-15T08:12:41;1.70;99.90
9971;DHT22;5026;51.494;11.974;2024-01-15T08:15:09;1.80;99.90
9971;DHT22;5026;51.494;11.974;2024-01-15T08:17:36;2.00;99.90
9971;DHT22;5026;51.494;11.974;2024-01-15T08:20:04;2.00;99.90
9971;DHT22;5026;51.494;11.974;2024-01-15T08:22:31;1.90;99.90
9971;DHT22;5026;51.494;11.974;2024-01-15T08:25:00;1.90;99.90
9971;DHT22;5026;51.494;11.974;2024-01-15T08:27:27;2.00;99.90
9971;DHT22;5026;51.494;11.974;2024-01-15T08:29:53;2.30;99.90
9971;DHT22;5026;51.494;11.974;2024-01-15T08:32:21;2.30;99.90
9971;DHT22;5026;51.494;11.974;2024-01-15T08:34:48;2.40;99.90
9971;DHT22;5026;51.494;11.974;2024-01-15T08:37:17;2.40;99.90
9971;DHT22;5026;51.494;11.974;2024-01-15T08:39:44;2.50;99.90
9971;DHT22;5026;51.494;11.974;2024-01-15T08:42:13;3.20;99.90
9971;DHT22;5026;51.494;11.974;2024-01-15T08:44:39;3.20;99.90
9971;DHT22;5026;51.494;11.974;2024-01-15T08:47:09;3.20;99.90
9971;DHT22;5026;51.494;11.974;2024-01-15T08:49:36;3.60;99.90
9971;DHT22;5026;51.494;11.974;2024-01-15T08:52:03;3.70;99.90
9971;DHT22;5026;51.494;11.974;2024-01-15T08:54:30;3.10;99.90
9971;DHT22;5026;51.494;11.974;2024-01-15T08:56:57;3.10;99.90
9971;DHT22;5026;51.494;11.974;2024-01-15T08:59:27;2.90;99.90
9971;DHT22;5026;51.494;11.974;2024-01-15T09:01:54;3.10;99.90
9971;DHT22;5026;51.494;11.974;2024-01-15T09:04:23;3.30;99.90
9971;DHT22;5026;51.494;11.974;2024-01-15T09:06:51;3.50;99.90
9971;DHT22;5026;51.494;11.974;2024-01-15T09:09:18;3.70;99.90
9971;DHT22;5026;51.494;11.974;2024-01-15T09:11:45;3.80;99.90
9971;DHT22;5026;51.494;11.974;2024-01-15T09:14:12;3.90;99.90
9971;DHT22;5026;51.494;11.974;2024-01-15T09:16:41;4.10;99.90
9971;DHT22;5026;51.494;11.974;2024-01-15T09:19:09;4.20;99.90
9971;DHT22;5026;51.494;11.974;2024-01-15T09:21:38;3.90;99.90
9971;DHT22;5026;51.494;11.974;2024-01-15T09:24:05;4.00;99.90
9971;DHT22;5026;51.494;11.974;2024-01-15T09:26:32;4.30;99.90
9971;DHT22;5026;51.494;11.974;2024-01-15T09:28:59;4.20;99.90
9971;DHT22;5026;51.494;11.974;2024-01-15T09:31:28;4.30;99.90
9971;DHT22;5026;51.494;11.974;2024-01-15T09:33:57;4.10;99.90
9971;DHT22;5026;51.494;11.974;2024-01-15T09:36:25;4.10;99.90
9971;DHT22;5026;51.494;11.974;2024-01-15T09:38:52;4.10;99.90
9971;DHT22;5026;51.494;11.974;2024-01-15T09:41:20;4.00;99.90
9971;DHT22;5026;51.494;11.974;2024-01-15T09:43:47;3.90;99.90
9971;DHT22;5026;51.494;11.974;2024-01-15T09:46:15;3.80;99.90
9971;DHT22;5026;51.494;11.974;2024-01-15T09:48:43;3.90;99.90
9971;DHT22;5026;51.494;11.974;2024-01-15T09:51:11;4.00;99.90
9971;DHT22;5026;51.494;11.974;2024-01-15T09:53:39;4.00;99.90
9971;DHT22;5026;51.494;11.974;2024-01-15T09:56:08;4.10;99.90
9971;DHT22;5026;51.494;11.974;2024-01-15T09:58:38;4.00;99.90
9971;DHT22;5026;51.494;11.974;2024-01-15T10:01:08;3.80;99.90
9971;DHT22;5026;51.494;11.974;2024-01-15T10:03:35;3.40;99.90
9971;DHT22;5026;51.494;11.974;2024-01-15T10:06:03;3.50;99.90
9971;DHT22;5026;51.494;11.974;2024-01-15T10:08:32;3.70;99.90
9971;DHT22;5026;51.494;11.974;2024-01-15T10:11:01;3.80;99.90
9971;DHT22;5026;51.494;11.974;2024-01-15T10:13:30;3.70;99.90
9971;DHT22;5026;51.494;11.974;2024-01-15T10:15:57;3.80;99.90
9971;DHT22;5026;51.494;11.974;2024-01-15T10:18:25;3.70;99.90
9971;DHT22;5026;51.494;11.974;2024-01-15T10:20:52;3.60;99.90
9971;DHT22;5026;51.494;11.974;2024-01-15T10:23:19;3.70;99.90
9971;DHT22;5026;51.494;11.974;2024-01-15T10:25:48;3.60;99.90
9971;DHT22;5026;51.494;11.974;2024-01-15T10:28:19;3.40;99.90
9971;DHT22;5026;51.494;11.974;2024-01-15T10:30:46;3.30;99.90
9971;DHT22;5026;51.494;11.974;2024-01-15T10:33:13;3.40;99.90
9971;DHT22;5026;51.494;11.974;2024-01-15T10:35:41;3.50;99.90
9971;DHT22;5026;51.494;11.974;2024-01-15T10:38:08;3.60;99.90
9971;DHT22;5026;51.494;11.974;2024-01-15T10:40:35;3.70;99.90
9971;DHT22;5026;51.494;11.974;2024-01-15T10:43:03;3.60;99.90
9971;DHT22;5026;51.494;11.974;2024-01-15T10:45:31;3.60;99.90
9971;DHT22;5026;51.494;11.974;2024-01-15T10:47:58;3.50;99.90
9971;DHT22;5026;51.494;11.974;2024-01-15T10:50:26;3.40;99.90
9971;DHT22;5026;51.494;11.974;2024-01-15T10:52:53;3.30;99.90
9971;DHT22;5026;51.494;11.974;2024-01-15T10:55:21;3.30;99.90
9971;DHT22;5026;51.494;11.974;2024-01-15T11:00:19;3.30;99.90
9971;DHT22;5026;51.494;11.974;2024-01-15T11:02:47;3.30;99.90
9971;DHT22;5026;51.494;11.974;2024-01-15T11:05:14;3.30;99.90
9971;DHT22;5026;51.494;11.974;2024-01-15T11:07:43;3.20;99.90
9971;DHT22;5026;51.494;11.974;2024-01-15T11:10:38;3.40;99.90
9971;DHT22;5026;51.494;11.974;2024-01-15T11:13:08;3.30;99.90
9971;DHT22;5026;51.494;11.974;2024-01-15T11:15:59;3.30;99.90
9971;DHT22;5026;51.494;11.974;2024-01-15T11:18:30;3.30;99.90
9971;DHT22;5026;51.494;11.974;2024-01-15T11:21:22;3.30;99.90
9971;DHT22;5026;51.494;11.974;2024-01-15T11:23:52;3.30;99.90
9971;DHT22;5026;51.494;11.974;2024-01-15T11:26:36;3.40;99.90
9971;DHT22;5026;51.494;11.974;2024-01-15T11:29:04;3.20;99.90
9971;DHT22;5026;51.494;11.974;2024-01-15T11:31:59;3.20;99.90
9971;DHT22;5026;51.494;11.974;2024-01-15T11:34:55;3.30;99.90
9971;DHT22;5026;51.494;11.974;2024-01-15T11:37:24;3.30;99.90
9971;DHT22;5026;51.494;11.974;2024-01-15T11:39:53;3.20;99.90
9971;DHT22;5026;51.494;11.974;2024-01-15T11:42:21;3.20;99.90
9971;DHT22;5026;51.494;11.974;2024-01-15T11:44:50;3.40;99.90
9971;DHT22;5026;51.494;11.974;2024-01-15T11:47:43;3.50;99.90
9971;DHT22;5026;51.494;11.974;2024-01-15T11:50:18;3.50;99.90
9971;DHT22;5026;51.494;11.974;2024-01-15T11:52:55;3.70;99.90
9971;DHT22;5026;51.494;11.974;2024-01-15T11:55:27;3.70;99.90
9971;DHT22;5026;51.494;11.974;2024-01-15T11:57:55;3.70;99.90
9971;DHT22;5026;51.494;11.974;2024-01-15T12:00:24;3.80;99.90
9971;DHT22;5026;51.494;11.974;2024-01-15T12:02:53;3.80;99.90
9971;DHT22;5026;51.494;11.974;2024-01-15T12:05:20;3.60;99.90
9971;DHT22;5026;51.494;11.974;2024-01-15T12:07:49;3.70;99.90
9971;DHT22;5026;51.494;11.974;2024-01-15T12:10:17;3.80;99.90
9971;DHT22;5026;51.494;11.974;2024-01-15T12:12:56;3.80;99.90
9971;DHT22;5026;51.494;11.974;2024-01-15T12:15:24;3.80;99.90
9971;DHT22;5026;51.494;11.974;2024-01-15T12:17:54;4.00;99.90
9971;DHT22;5026;51.494;11.974;2024-01-15T12:20:21;4.10;99.90
9971;DHT22;5026;51.494;11.974;2024-01-15T12:22:48;4.00;99.90
9971;DHT22;5026;51.494;11.974;2024-01-15T12:25:15;4.00;99.90
9971;DHT22;5026;51.494;11.974;2024-01-15T12:27:42;4.00;99.90
9971;DHT22;5026;51.494;11.974;2024-01-15T12:30:11;4.00;99.90
9971;DHT22;5026;51.494;11.974;2024-01-15T12:32:39;4.00;99.90
9971;DHT22;5026;51.494;11.974;2024-01-15T12:35:08;4.40;99.90
9971;DHT22;5026;51.494;11.974;2024-01-15T12:37:35;4.00;99.90
9971;DHT22;5026;51.494;11.974;2024-01-15T12:40:02;4.00;99.90
9971;DHT22;5026;51.494;11.974;2024-01-15T12:42:30;4.00;99.90
9971;DHT22;5026;51.494;11.974;2024-01-15T12:44:57;4.10;99.90
9971;DHT22;5026;51.494;11.974;2024-01-15T12:47:24;4.20;99.90
9971;DHT22;5026;51.494;11.974;2024-01-15T12:49:52;4.20;99.90
9971;DHT22;5026;51.494;11.974;2024-01-15T12:52:21;4.10;99.90
9971;DHT22;5026;51.494;11.974;2024-01-15T12:54:49;4.10;99.90
9971;DHT22;5026;51.494;11.974;2024-01-15T12:57:16;4.10;99.90
9971;DHT22;5026;51.494;11.974;2024-01-15T12:59:43;4.50;99.90
9971;DHT22;5026;51.494;11.974;2024-01-15T13:02:11;4.10;99.90
9971;DHT22;5026;51.494;11.974;2024-01-15T13:04:38;3.90;99.90
9971;DHT22;5026;51.494;11.974;2024-01-15T13:07:05;3.90;99.90
9971;DHT22;5026;51.494;11.974;2024-01-15T13:09:34;3.90;99.90
9971;DHT22;5026;51.494;11.974;2024-01-15T13:12:02;3.80;99.90
9971;DHT22;5026;51.494;11.974;2024-01-15T13:14:29;3.80;99.90
9971;DHT22;5026;51.494;11.974;2024-01-15T13:16:56;3.80;99.90
9971;DHT22;5026;51.494;11.974;2024-01-15T13:19:24;3.70;99.90
9971;DHT22;5026;51.494;11.974;2024-01-15T13:21:51;3.60;99.90
9971;DHT22;5026;51.494;11.974;2024-01-15T13:24:19;3.60;99.90
9971;DHT22;5026;51.494;11.974;2024-01-15T13:26:47;3.50;99.90
9971;DHT22;5026;51.494;11.974;2024-01-15T13:29:14;3.50;99.90
9971;DHT22;5026;51.494;11.974;2024-01-15T13:31:41;3.50;99.90
9971;DHT22;5026;51.494;11.974;2024-01-15T13:34:08;3.40;99.90
9971;DHT22;5026;51.494;11.974;2024-01-15T13:36:35;3.40;99.90
9971;DHT22;5026;51.494;11.974;2024-01-15T13:39:04;3.50;99.90
9971;DHT22;5026;51.494;11.974;2024-01-15T13:41:34;3.40;99.90
9971;DHT22;5026;51.494;11.974;2024-01-15T13:44:03;3.50;99.90
9971;DHT22;5026;51.494;11.974;2024-01-15T13:46:30;3.50;99.90
9971;DHT22;5026;51.494;11.974;2024-01-15T13:48:57;3.50;99.90
9971;DHT22;5026;51.494;11.974;2024-01-15T13:51:24;3.50;99.90
9971;DHT22;5026;51.494;11.974;2024-01-15T13:53:51;3.50;99.90
9971;DHT22;5026;51.494;11.974;2024-01-15T13:56:19;3.50;99.90
9971;DHT22;5026;51.494;11.974;2024-01-15T13:58:46;3.50;99.90
9971;DHT22;5026;51.494;11.974;2024-01-15T14:01:16;3.50;99.90
9971;DHT22;5026;51.494;11.974;2024-01-15T14:03:44;3.50;99.90
9971;DHT22;5026;51.494;11.974;2024-01-15T14:06:11;3.50;99.90
9971;DHT22;5026;51.494;11.974;2024-01-15T14:08:38;3.50;99.90
9971;DHT22;5026;51.494;11.974;2024-01-15T14:11:05;3.50;99.90
9971;DHT22;5026;51.494;11.974;2024-01-15T14:13:33;3.50;99.90
9971;DHT22;5026;51.494;11.974;2024-01-15T14:16:00;3.50;99.90
9971;DHT22;5026;51.494;11.974;2024-01-15T14:18:28;3.50;99.90
9971;DHT22;5026;51.494;11.974;2024-01-15T14:20:55;3.40;99.90
9971;DHT22;5026;51.494;11.974;2024-01-15T14:23:22;3.60;99.90
9971;DHT22;5026;51.494;11.974;2024-01-15T14:25:49;3.40;99.90
9971;DHT22;5026;51.494;11.974;2024-01-15T14:28:19;3.30;99.90
9971;DHT22;5026;51.494;11.974;2024-01-15T14:30:46;3.30;99.90
9971;DHT22;5026;51.494;11.974;2024-01-15T14:33:13;3.50;99.90
9971;DHT22;5026;51.494;11.974;2024-01-15T14:35:41;3.40;99.90
9971;DHT22;5026;51.494;11.974;2024-01-15T14:38:08;3.30;99.90
9971;DHT22;5026;51.494;11.974;2024-01-15T14:40:35;3.40;99.90
9971;DHT22;5026;51.494;11.974;2024-01-15T14:43:03;3.40;99.90
9971;DHT22;5026;51.494;11.974;2024-01-15T14:45:30;3.40;99.90
9971;DHT22;5026;51.494;11.974;2024-01-15T14:47:57;3.40;99.90
9971;DHT22;5026;51.494;11.974;2024-01-15T14:50:24;3.40;99.90
9971;DHT22;5026;51.494;11.974;2024-01-15T14:52:53;3.30;99.90
9971;DHT22;5026;51.494;11.974;2024-01-15T14:55:20;3.30;99.90
9971;DHT22;5026;51.494;11.974;2024-01-15T14:57:49;3.30;99.90
9971;DHT22;5026;51.494;11.974;2024-01-15T15:00:16;3.30;99.90
9971;DHT22;5026;51.494;11.974;2024-01-15T15:05:11;3.30;99.90
9971;DHT22;5026;51.494;11.974;2024-01-15T15:07:39;3.10;99.90
9971;DHT22;5026;51.494;11.974;2024-01-15T15:10:09;3.20;99.90
9971;DHT22;5026;51.494;11.974;2024-01-15T15:12:36;3.00;99.90
9971;DHT22;5026;51.494;11.974;2024-01-15T15:15:04;3.80;99.90
9971;DHT22;5026;51.494;11.974;2024-01-15T15:17:32;2.90;99.90
9971;DHT22;5026;51.494;11.974;2024-01-15T15:20:00;2.90;99.90
9971;DHT22;5026;51.494;11.974;2024-01-15T15:22:28;3.00;99.90
9971;DHT22;5026;51.494;11.974;2024-01-15T15:24:55;3.00;99.90
9971;DHT22;5026;51.494;11.974;2024-01-15T15:27:23;3.00;99.90
9971;DHT22;5026;51.494;11.974;2024-01-15T15:29:50;3.00;99.90
9971;DHT22;5026;51.494;11.974;2024-01-15T15:32:17;2.90;99.90
9971;DHT22;5026;51.494;11.974;2024-01-15T15:34:44;2.60;99.90
9971;DHT22;5026;51.494;11.974;2024-01-15T15:37:11;2.90;99.90
9971;DHT22;5026;51.494;11.974;2024-01-15T15:39:41;2.90;99.90
9971;DHT22;5026;51.494;11.974;2024-01-15T15:42:09;2.90;99.90
9971;DHT22;5026;51.494;11.974;2024-01-15T15:44:38;2.70;99.90
9971;DHT22;5026;51.494;11.974;2024-01-15T15:47:11;2.80;99.90
9971;DHT22;5026;51.494;11.974;2024-01-15T15:49:38;2.70;99.90
9971;DHT22;5026;51.494;11.974;2024-01-15T15:52:05;2.70;99.90
9971;DHT22;5026;51.494;11.974;2024-01-15T15:54:32;2.70;99.90
9971;DHT22;5026;51.494;11.974;2024-01-15T15:56:59;2.70;99.90
9971;DHT22;5026;51.494;11.974;2024-01-15T15:59:26;2.60;99.90
9971;DHT22;5026;51.494;11.974;2024-01-15T16:01:55;2.70;99.90
9971;DHT22;5026;51.494;11.974;2024-01-15T16:04:22;2.70;99.90
9971;DHT22;5026;51.494;11.974;2024-01-15T16:06:49;3.20;99.90
9971;DHT22;5026;51.494;11.974;2024-01-15T16:09:16;2.60;99.90
9971;DHT22;5026;51.494;11.974;2024-01-15T16:11:43;2.60;99.90
9971;DHT22;5026;51.494;11.974;2024-01-15T16:14:10;2.60;99.90